createdAt,value
2019-01-21T00:01:49.478Z,99.90
2019-01-21T00:04:19.277Z,99.90
2019-01-21T00:06:49.973Z,99.90
2019-01-21T00:09:19.429Z,99.90
2019-01-21T00:11:50.351Z,99.90
2019-01-21T00:14:19.838Z,99.90
2019-01-21T00:16:49.473Z,99.90
2019-01-21T00:19:18.980Z,99.90
2019-01-21T00:21:48.495Z,99.90
2019-01-21T00:24:17.910Z,99.90
2019-01-21T00:26:48.634Z,99.90
2019-01-21T00:29:18.059Z,99.90
2019-01-21T00:31:47.575Z,99.90
2019-01-21T00:34:17.055Z,99.90
2019-01-21T00:36:48.064Z,99.90
2019-01-21T00:39:17.544Z,99.90
2019-01-21T00:41:48.264Z,99.90
2019-01-21T00:44:17.679Z,99.90
2019-01-21T00:46:47.135Z,99.90
2019-01-21T00:49:16.607Z,99.90
2019-01-21T00:51:46.046Z,99.90
2019-01-21T00:54:15.467Z,99.90
2019-01-21T00:56:46.284Z,99.90
2019-01-21T00:59:15.704Z,99.90
2019-01-21T01:01:46.423Z,99.90
2019-01-21T01:04:15.835Z,99.90
2019-01-21T01:06:46.560Z,99.90
2019-01-21T01:09:15.971Z,99.90
2019-01-21T01:11:46.690Z,99.90
2019-01-21T01:14:16.102Z,99.90
2019-01-21T01:16:47.022Z,99.90
2019-01-21T01:19:16.441Z,99.90
2019-01-21T01:21:47.254Z,99.90
2019-01-21T01:24:16.780Z,99.90
2019-01-21T01:26:47.559Z,99.90
2019-01-21T01:29:16.966Z,99.90
2019-01-21T01:31:47.803Z,99.90
2019-01-21T01:34:17.290Z,99.90
2019-01-21T01:36:46.779Z,99.90
2019-01-21T01:39:16.310Z,99.90
2019-01-21T01:41:45.807Z,99.90
2019-01-21T01:44:15.267Z,99.90
2019-01-21T01:46:46.527Z,99.90
2019-01-21T01:49:15.970Z,99.90
2019-01-21T01:51:45.455Z,99.90
2019-01-21T01:54:14.903Z,99.90
2019-01-21T01:56:45.893Z,99.90
2019-01-21T01:59:15.403Z,99.90
2019-01-21T02:01:46.390Z,99.90
2019-01-21T02:04:15.946Z,99.90
2019-01-21T02:06:46.943Z,99.90
2019-01-21T02:09:16.391Z,99.90
2019-01-21T02:11:47.280Z,99.90
2019-01-21T02:14:16.729Z,99.90
2019-01-21T02:16:46.138Z,99.90
2019-01-21T02:19:15.619Z,99.90
2019-01-21T02:21:45.095Z,99.90
2019-01-21T02:24:15.087Z,99.90
2019-01-21T02:26:49.328Z,99.90
2019-01-21T02:29:22.036Z,99.90
2019-01-21T02:32:18.640Z,99.90
2019-01-21T02:34:54.091Z,99.90
2019-01-21T02:37:35.728Z,99.90
2019-01-21T02:40:24.954Z,99.90
2019-01-21T02:43:15.479Z,99.90
2019-01-21T02:46:02.017Z,99.90
2019-01-21T02:48:46.735Z,99.90
2019-01-21T02:51:37.773Z,99.90
2019-01-21T02:54:22.415Z,99.90
2019-01-21T02:56:59.391Z,99.90
2019-01-21T02:59:47.284Z,99.90
2019-01-21T03:02:36.135Z,99.90
2019-01-21T03:05:20.850Z,99.90
2019-01-21T03:08:17.920Z,99.90
2019-01-21T03:11:26.026Z,99.90
2019-01-21T03:14:26.354Z,99.90
2019-01-21T03:17:16.879Z,99.90
2019-01-21T03:19:55.222Z,99.90
2019-01-21T03:22:41.269Z,99.90
2019-01-21T03:25:26.048Z,99.90
2019-01-21T03:28:22.756Z,99.90
2019-01-21T03:31:13.696Z,99.90
2019-01-21T03:33:51.739Z,99.90
2019-01-21T03:36:39.322Z,99.90
2019-01-21T03:39:28.385Z,99.90
2019-01-21T03:42:08.596Z,99.90
2019-01-21T03:44:46.792Z,99.90
2019-01-21T03:47:28.483Z,99.90
2019-01-21T03:50:26.747Z,99.90
2019-01-21T03:53:05.216Z,99.90
2019-01-21T03:55:36.239Z,99.90
2019-01-21T03:58:28.518Z,99.90
2019-01-21T04:01:02.690Z,99.90
2019-01-21T04:03:38.330Z,99.90
2019-01-21T04:06:22.848Z,99.90
2019-01-21T04:09:07.136Z,99.90
2019-01-21T04:11:47.059Z,99.90
2019-01-21T04:14:47.084Z,99.90
2019-01-21T04:17:28.691Z,99.90
2019-01-21T04:20:04.104Z,99.90
2019-01-21T04:22:56.192Z,99.90
2019-01-21T04:25:37.619Z,99.90
2019-01-21T04:28:16.200Z,99.90
2019-01-21T04:30:51.723Z,99.90
2019-01-21T04:33:32.791Z,99.90
2019-01-21T04:36:20.508Z,99.90
2019-01-21T04:39:08.065Z,99.90
2019-01-21T04:41:58.888Z,99.90
2019-01-21T04:44:40.579Z,99.90
2019-01-21T04:47:39.112Z,99.90
2019-01-21T04:50:20.679Z,99.90
2019-01-21T04:53:06.695Z,99.90
2019-01-21T04:55:58.734Z,99.90
2019-01-21T04:58:47.199Z,99.90
2019-01-21T05:01:36.588Z,99.90
2019-01-21T05:04:15.070Z,99.90
2019-01-21T05:06:54.705Z,99.90
2019-01-21T05:09:51.652Z,99.90
2019-01-21T05:12:52.822Z,99.90
2019-01-21T05:15:25.675Z,99.90
2019-01-21T05:18:01.495Z,99.90
2019-01-21T05:20:47.451Z,99.90
2019-01-21T05:23:32.014Z,99.90
2019-01-21T05:26:21.527Z,99.90
2019-01-21T05:28:57.262Z,99.90
2019-01-21T05:31:29.933Z,99.90
2019-01-21T05:34:05.258Z,99.90
2019-01-21T05:36:47.912Z,99.90
2019-01-21T05:39:23.454Z,99.90
2019-01-21T05:42:02.359Z,99.90
2019-01-21T05:44:53.209Z,99.90
2019-01-21T05:47:48.320Z,99.90
2019-01-21T05:50:30.051Z,99.90
2019-01-21T05:53:05.685Z,99.90
2019-01-21T05:56:09.922Z,99.90
2019-01-21T05:58:57.403Z,99.90
2019-01-21T06:01:46.123Z,99.90
2019-01-21T06:04:30.666Z,99.90
2019-01-21T06:07:07.416Z,99.90
2019-01-21T06:09:52.138Z,99.90
2019-01-21T06:12:41.530Z,99.90
2019-01-21T06:15:23.018Z,99.90
2019-01-21T06:18:01.207Z,99.90
2019-01-21T06:20:36.172Z,99.90
2019-01-21T06:23:25.205Z,99.90
2019-01-21T06:26:17.456Z,99.90
2019-01-21T06:28:55.879Z,99.90
2019-01-21T06:31:55.655Z,99.90
2019-01-21T06:34:43.265Z,99.90
2019-01-21T06:37:27.740Z,99.90
2019-01-21T06:40:12.099Z,99.90
2019-01-21T06:42:48.994Z,99.90
2019-01-21T06:45:44.049Z,99.90
2019-01-21T06:48:34.654Z,99.90
2019-01-21T06:51:23.942Z,99.90
2019-01-21T06:54:05.526Z,99.90
2019-01-21T06:56:50.243Z,99.90
2019-01-21T06:59:39.331Z,99.90
2019-01-21T07:02:22.166Z,99.90
2019-01-21T07:05:14.653Z,99.90
2019-01-21T07:08:17.400Z,99.90
2019-01-21T07:11:02.293Z,99.90
2019-01-21T07:13:54.605Z,99.90
2019-01-21T07:16:54.859Z,99.90
2019-01-21T07:19:32.955Z,99.90
2019-01-21T07:22:15.223Z,99.90
2019-01-21T07:24:53.511Z,99.90
2019-01-21T07:27:46.849Z,99.90
2019-01-21T07:30:25.487Z,99.90
2019-01-21T07:33:07.235Z,99.90
2019-01-21T07:36:16.185Z,99.90
2019-01-21T07:39:00.015Z,99.90
2019-01-21T07:41:48.993Z,99.90
2019-01-21T07:44:44.142Z,99.90
2019-01-21T07:47:22.683Z,99.90
2019-01-21T07:50:04.165Z,99.90
2019-01-21T07:52:47.295Z,99.90
2019-01-21T07:55:45.503Z,99.90
2019-01-21T07:58:50.678Z,99.90
2019-01-21T08:01:27.190Z,99.90
2019-01-21T08:04:22.519Z,99.90
2019-01-21T08:07:08.559Z,99.90
2019-01-21T08:10:00.842Z,99.90
2019-01-21T08:12:49.997Z,99.90
2019-01-21T08:15:26.417Z,99.90
2019-01-21T08:18:11.283Z,99.90
2019-01-21T08:20:47.246Z,99.90
2019-01-21T08:23:35.091Z,99.90
2019-01-21T08:26:39.971Z,99.90
2019-01-21T08:29:18.580Z,99.90
2019-01-21T08:31:55.383Z,99.90
2019-01-21T08:34:47.622Z,99.90
2019-01-21T08:37:21.262Z,99.90
2019-01-21T08:40:06.027Z,99.90
2019-01-21T08:43:07.427Z,99.90
2019-01-21T08:45:48.979Z,99.90
2019-01-21T08:48:24.601Z,99.90
2019-01-21T08:51:05.676Z,99.90
2019-01-21T08:53:57.690Z,99.90
2019-01-21T08:56:52.533Z,99.90
2019-01-21T08:59:27.837Z,99.70
2019-01-21T09:02:20.967Z,99.90
2019-01-21T09:05:10.328Z,99.90
2019-01-21T09:08:19.239Z,99.90
2019-01-21T09:11:11.461Z,99.90
2019-01-21T09:13:59.942Z,99.90
2019-01-21T09:16:44.533Z,99.90
2019-01-21T09:19:42.895Z,99.90
2019-01-21T09:22:22.441Z,99.90
2019-01-21T09:24:57.750Z,99.90
2019-01-21T09:27:30.462Z,99.90
2019-01-21T09:30:03.203Z,99.90
2019-01-21T09:32:55.527Z,99.20
2019-01-21T09:35:45.646Z,94.20
2019-01-21T09:38:24.066Z,89.90
2019-01-21T09:40:56.867Z,83.30
2019-01-21T09:43:32.196Z,77.50
2019-01-21T09:46:07.498Z,76.90
2019-01-21T09:48:36.082Z,80.20
2019-01-21T09:51:06.789Z,78.20
2019-01-21T09:53:36.232Z,74.90
2019-01-21T09:56:07.009Z,75.30
2019-01-21T09:58:36.430Z,74.80
2019-01-21T10:01:07.735Z,74.00
2019-01-21T10:03:37.454Z,68.80
2019-01-21T10:06:08.249Z,67.50
2019-01-21T10:08:52.535Z,66.60
2019-01-21T10:11:32.383Z,64.40
2019-01-21T10:14:09.577Z,62.30
2019-01-21T10:16:47.946Z,62.50
2019-01-21T10:19:23.352Z,62.60
2019-01-21T10:22:07.714Z,65.80
2019-01-21T10:24:40.483Z,63.30
2019-01-21T10:27:23.268Z,60.80
2019-01-21T10:30:07.638Z,60.80
2019-01-21T10:32:44.945Z,61.20
2019-01-21T10:35:26.871Z,61.10
2019-01-21T10:38:28.340Z,59.70
2019-01-21T10:41:07.070Z,59.70
2019-01-21T10:44:07.192Z,58.70
2019-01-21T10:46:43.874Z,59.20
2019-01-21T10:49:16.651Z,58.70
2019-01-21T10:51:59.523Z,57.80
2019-01-21T10:54:44.234Z,57.70
2019-01-21T10:57:19.672Z,57.10
2019-01-21T11:00:13.621Z,54.80
2019-01-21T11:03:02.697Z,55.30
2019-01-21T11:06:07.454Z,55.30
2019-01-21T11:08:49.493Z,54.00
2019-01-21T11:11:23.538Z,53.50
2019-01-21T11:13:59.327Z,53.20
2019-01-21T11:16:48.849Z,55.20
2019-01-21T11:19:24.263Z,54.50
2019-01-21T11:21:57.006Z,56.00
2019-01-21T11:24:49.375Z,57.70
2019-01-21T11:27:35.416Z,54.60
2019-01-21T11:30:27.778Z,52.10
2019-01-21T11:33:16.816Z,54.10
2019-01-21T11:35:52.139Z,54.80
2019-01-21T11:38:39.823Z,55.70
2019-01-21T11:41:24.561Z,54.20
2019-01-21T11:44:25.999Z,52.90
2019-01-21T11:47:15.402Z,52.90
2019-01-21T11:49:48.081Z,54.90
2019-01-21T11:52:43.125Z,52.80
2019-01-21T11:55:25.425Z,52.60
2019-01-21T11:58:07.390Z,51.70
2019-01-21T12:01:05.899Z,53.70
2019-01-21T12:03:50.960Z,54.20
2019-01-21T12:06:23.747Z,53.30
2019-01-21T12:09:14.720Z,55.50
2019-01-21T12:11:50.371Z,56.50
2019-01-21T12:14:34.910Z,56.90
2019-01-21T12:17:34.790Z,59.60
2019-01-21T12:20:19.327Z,56.70
2019-01-21T12:23:17.344Z,56.20
2019-01-21T12:26:06.602Z,53.90
2019-01-21T12:28:39.301Z,54.80
2019-01-21T12:31:32.946Z,52.90
2019-01-21T12:34:11.521Z,52.40
2019-01-21T12:36:48.606Z,52.60
2019-01-21T12:39:23.803Z,52.90
2019-01-21T12:42:03.335Z,53.10
2019-01-21T12:44:54.192Z,54.50
2019-01-21T12:47:28.202Z,55.40
2019-01-21T12:50:16.963Z,56.20
2019-01-21T12:52:53.707Z,55.40
2019-01-21T12:55:49.289Z,57.10
2019-01-21T12:58:24.930Z,55.00
2019-01-21T13:01:11.131Z,55.90
2019-01-21T13:03:52.978Z,53.40
2019-01-21T13:06:45.183Z,55.30
2019-01-21T13:09:37.450Z,55.30
2019-01-21T13:12:34.123Z,57.20
2019-01-21T13:15:18.882Z,60.30
2019-01-21T13:18:24.911Z,60.50
2019-01-21T13:21:05.835Z,66.20
2019-01-21T13:23:44.604Z,74.20
2019-01-21T13:26:47.691Z,76.80
2019-01-21T13:29:20.466Z,80.90
2019-01-21T13:32:06.596Z,89.20
2019-01-21T13:34:57.519Z,87.60
2019-01-21T13:37:36.971Z,91.30
2019-01-21T13:40:15.526Z,91.60
2019-01-21T13:42:55.575Z,93.70
2019-01-21T13:45:45.091Z,97.90
2019-01-21T13:48:20.703Z,98.10
2019-01-21T13:50:56.138Z,98.30
2019-01-21T13:53:52.484Z,99.90
2019-01-21T13:56:29.361Z,99.90
2019-01-21T13:59:18.770Z,99.90
2019-01-21T14:01:51.515Z,99.90
2019-01-21T14:04:50.522Z,99.90
2019-01-21T14:07:24.775Z,99.90
2019-01-21T14:10:06.206Z,99.90
2019-01-21T14:12:40.748Z,99.90
2019-01-21T14:15:22.218Z,99.90
2019-01-21T14:18:01.964Z,99.90
2019-01-21T14:20:46.474Z,99.90
2019-01-21T14:23:27.804Z,99.90
2019-01-21T14:26:07.690Z,99.90
2019-01-21T14:28:58.531Z,99.90
2019-01-21T14:31:49.211Z,99.90
2019-01-21T14:34:49.368Z,99.90
2019-01-21T14:37:38.431Z,99.90
2019-01-21T14:40:29.229Z,99.90
2019-01-21T14:43:19.532Z,99.90
2019-01-21T14:45:52.308Z,99.90
2019-01-21T14:48:27.900Z,99.90
2019-01-21T14:51:14.065Z,99.90
2019-01-21T14:53:49.602Z,99.90
2019-01-21T14:56:26.684Z,99.90
2019-01-21T14:59:07.912Z,99.90
2019-01-21T15:01:44.866Z,99.90
2019-01-21T15:04:41.917Z,99.90
2019-01-21T15:07:18.613Z,99.90
2019-01-21T15:09:57.524Z,99.90
2019-01-21T15:12:48.159Z,99.90
2019-01-21T15:15:40.667Z,99.90
2019-01-21T15:18:31.368Z,99.90
2019-01-21T15:21:09.803Z,99.90
2019-01-21T15:23:59.089Z,99.90
2019-01-21T15:26:39.041Z,99.90
2019-01-21T15:29:29.840Z,99.90
2019-01-21T15:32:26.260Z,99.90
2019-01-21T15:35:22.567Z,99.90
2019-01-21T15:38:09.951Z,99.90
2019-01-21T15:41:02.051Z,99.90
2019-01-21T15:43:40.791Z,99.90
2019-01-21T15:46:34.592Z,99.90
2019-01-21T15:49:07.291Z,99.90
2019-01-21T15:51:50.235Z,99.90
2019-01-21T15:54:40.732Z,99.90
2019-01-21T15:57:21.931Z,99.90
2019-01-21T15:59:57.279Z,99.90
2019-01-21T16:02:34.394Z,99.90
2019-01-21T16:05:07.221Z,99.90
2019-01-21T16:07:50.490Z,99.90
2019-01-21T16:10:31.898Z,99.90
2019-01-21T16:13:16.203Z,99.90
2019-01-21T16:15:52.943Z,99.90
2019-01-21T16:18:28.295Z,99.90
2019-01-21T16:21:35.651Z,99.90
2019-01-21T16:24:25.035Z,99.90
2019-01-21T16:27:01.926Z,99.90
2019-01-21T16:29:37.468Z,99.90
2019-01-21T16:32:08.591Z,99.90
2019-01-21T16:34:44.186Z,99.90
2019-01-21T16:37:16.934Z,99.90
2019-01-21T16:40:12.562Z,99.90
2019-01-21T16:42:43.564Z,99.90
2019-01-21T16:45:12.989Z,99.90
2019-01-21T16:47:43.845Z,99.90
2019-01-21T16:50:13.257Z,99.90
2019-01-21T16:52:44.065Z,99.90
2019-01-21T16:55:13.956Z,99.90
2019-01-21T16:57:44.918Z,99.90
2019-01-21T17:00:15.007Z,99.90
2019-01-21T17:02:46.071Z,99.90
2019-01-21T17:05:15.558Z,99.90
2019-01-21T17:07:46.574Z,99.90
2019-01-21T17:10:16.022Z,99.90
2019-01-21T17:12:46.847Z,99.90
2019-01-21T17:15:16.388Z,99.90
2019-01-21T17:17:47.284Z,99.90
2019-01-21T17:20:19.867Z,99.90
2019-01-21T17:22:50.655Z,99.90
2019-01-21T17:25:20.314Z,99.90
2019-01-21T17:27:51.245Z,99.90
2019-01-21T17:30:20.845Z,99.90
2019-01-21T17:32:51.798Z,99.90
2019-01-21T17:35:21.318Z,99.90
2019-01-21T17:37:52.330Z,99.90
2019-01-21T17:40:21.851Z,99.90
2019-01-21T17:42:52.730Z,99.90
2019-01-21T17:45:22.246Z,99.90
2019-01-21T17:47:51.662Z,99.90
2019-01-21T17:50:22.690Z,99.90
2019-01-21T17:52:52.170Z,99.90
2019-01-21T17:55:21.683Z,99.90
2019-01-21T17:57:52.760Z,99.90
2019-01-21T18:00:23.261Z,99.90
2019-01-21T18:02:52.893Z,99.90
2019-01-21T18:05:23.839Z,99.90
2019-01-21T18:07:53.261Z,99.90
2019-01-21T18:10:22.776Z,99.90
2019-01-21T18:12:52.196Z,99.90
2019-01-21T18:15:21.723Z,99.90
2019-01-21T18:17:52.706Z,99.90
2019-01-21T18:20:22.621Z,99.90
2019-01-21T18:22:53.533Z,99.90
2019-01-21T18:25:23.169Z,99.90
2019-01-21T18:27:52.650Z,99.90
2019-01-21T18:30:23.120Z,99.90
2019-01-21T18:32:54.207Z,99.90
2019-01-21T18:35:23.723Z,99.90
2019-01-21T18:37:54.378Z,99.90
2019-01-21T18:40:25.177Z,99.90
2019-01-21T18:42:54.781Z,99.90
2019-01-21T18:45:25.505Z,99.90
2019-01-21T18:47:55.012Z,99.90
2019-01-21T18:50:25.798Z,99.90
2019-01-21T18:52:55.251Z,99.90
2019-01-21T18:55:26.039Z,99.90
2019-01-21T18:57:55.975Z,99.90
2019-01-21T19:00:25.805Z,99.90
2019-01-21T19:02:55.327Z,99.90
2019-01-21T19:05:24.811Z,99.90
2019-01-21T19:07:54.262Z,99.90
2019-01-21T19:10:23.746Z,99.90
2019-01-21T19:12:53.199Z,99.90
2019-01-21T19:15:26.982Z,99.90
2019-01-21T19:17:56.562Z,99.90
2019-01-21T19:20:29.270Z,99.90
2019-01-21T19:22:58.763Z,99.90
2019-01-21T19:25:29.661Z,99.90
2019-01-21T19:27:59.102Z,99.90
2019-01-21T19:30:28.513Z,99.90
2019-01-21T19:32:58.023Z,99.90
2019-01-21T19:35:30.111Z,99.90
2019-01-21T19:37:59.610Z,99.90
2019-01-21T19:40:30.535Z,99.90
2019-01-21T19:43:00.056Z,99.90
2019-01-21T19:45:31.433Z,99.90
2019-01-21T19:48:00.929Z,99.90
2019-01-21T19:50:32.215Z,99.90
2019-01-21T19:53:01.664Z,99.90
2019-01-21T19:55:35.551Z,99.90
2019-01-21T19:58:05.930Z,99.90
2019-01-21T20:00:38.477Z,99.90
2019-01-21T20:03:07.915Z,99.90
2019-01-21T20:05:38.946Z,99.90
2019-01-21T20:08:08.433Z,99.90
2019-01-21T20:10:39.123Z,99.90
2019-01-21T20:13:08.661Z,99.90
2019-01-21T20:15:39.449Z,99.90
2019-01-21T20:18:09.131Z,99.90
2019-01-21T20:20:40.587Z,99.90
2019-01-21T20:23:10.108Z,99.90
2019-01-21T20:25:39.635Z,99.90
2019-01-21T20:28:09.125Z,99.90
2019-01-21T20:30:38.660Z,99.90
2019-01-21T20:33:08.314Z,99.90
2019-01-21T20:35:39.327Z,99.90
2019-01-21T20:38:08.906Z,99.90
2019-01-21T20:40:39.723Z,99.90
2019-01-21T20:43:09.216Z,99.90
2019-01-21T20:45:40.231Z,99.90
2019-01-21T20:48:11.474Z,99.90
2019-01-21T20:50:43.018Z,99.90
2019-01-21T20:53:12.590Z,99.90
2019-01-21T20:55:43.518Z,99.90
2019-01-21T20:58:12.931Z,99.90
2019-01-21T21:00:43.851Z,99.90
2019-01-21T21:03:13.340Z,99.90
2019-01-21T21:05:44.151Z,99.90
2019-01-21T21:08:13.641Z,99.90
2019-01-21T21:10:44.365Z,99.90
2019-01-21T21:13:13.780Z,99.90
2019-01-21T21:15:43.295Z,99.90
2019-01-21T21:18:12.783Z,99.90
2019-01-21T21:20:42.299Z,99.90
2019-01-21T21:23:11.721Z,99.90
2019-01-21T21:25:42.443Z,99.90
2019-01-21T21:28:11.857Z,99.90
2019-01-21T21:30:41.378Z,99.90
2019-01-21T21:33:10.791Z,99.90
2019-01-21T21:35:40.322Z,99.90
2019-01-21T21:38:09.810Z,99.90
2019-01-21T21:40:39.338Z,99.90
2019-01-21T21:43:08.820Z,99.90
2019-01-21T21:45:38.640Z,99.90
2019-01-21T21:48:08.122Z,99.90
2019-01-21T21:50:39.047Z,99.90
2019-01-21T21:53:08.504Z,99.90
2019-01-21T21:55:38.058Z,99.90
2019-01-21T21:58:07.982Z,99.90
2019-01-21T22:00:38.911Z,99.90
2019-01-21T22:03:08.395Z,99.90
2019-01-21T22:05:37.906Z,99.90
2019-01-21T22:08:07.326Z,99.90
2019-01-21T22:10:36.999Z,99.90
2019-01-21T22:13:06.594Z,99.90
2019-01-21T22:15:37.416Z,99.90
2019-01-21T22:18:06.839Z,99.90
2019-01-21T22:20:37.888Z,99.90
2019-01-21T22:23:07.373Z,99.90
2019-01-21T22:25:38.196Z,99.90
2019-01-21T22:28:07.647Z,99.90
2019-01-21T22:30:38.562Z,99.90
2019-01-21T22:33:08.043Z,99.90
2019-01-21T22:35:37.527Z,99.90
2019-01-21T22:38:07.043Z,99.90
2019-01-21T22:40:38.262Z,99.90
2019-01-21T22:43:07.714Z,99.90
2019-01-21T22:45:37.211Z,99.90
2019-01-21T22:48:06.681Z,99.90
2019-01-21T22:50:36.094Z,99.90
2019-01-21T22:53:05.546Z,99.90
2019-01-21T22:55:36.331Z,99.90
2019-01-21T22:58:05.852Z,99.90
2019-01-21T23:00:44.330Z,99.90
2019-01-21T23:03:14.346Z,99.90
2019-01-21T23:05:43.866Z,99.90
2019-01-21T23:08:13.378Z,99.90
2019-01-21T23:10:42.870Z,99.90
2019-01-21T23:13:12.386Z,99.90
2019-01-21T23:15:43.275Z,99.90
2019-01-21T23:18:12.903Z,99.90
2019-01-21T23:20:42.298Z,99.90
2019-01-21T23:23:11.819Z,99.90
2019-01-21T23:25:42.699Z,99.90
2019-01-21T23:28:12.193Z,99.90
2019-01-21T23:30:41.631Z,99.90
2019-01-21T23:33:11.160Z,99.90
2019-01-21T23:35:40.656Z,99.90
2019-01-21T23:38:10.063Z,99.90
2019-01-21T23:40:40.893Z,99.90
2019-01-21T23:43:11.913Z,99.90
2019-01-21T23:45:41.447Z,99.90
2019-01-21T23:48:11.126Z,99.90
2019-01-21T23:50:42.038Z,99.90
2019-01-21T23:53:11.528Z,99.90
2019-01-21T23:55:41.047Z,99.90
2019-01-21T23:58:10.476Z,99.90
